Latest Weather Observations for Hillarys Point Boat Harbour

IDW60901

Issued at 3:31 pm WST Tuesday 17 October 2017 (issued every 10 minutes, with the page automatically refreshed every 10 minutes)

About weather observations | Map of Perth area stations | Latest observations for Perth area | Other Formats
Station Details ID: 009265 Name: HILLARYS BOAT HARBOUR NTC AWS Lat: -31.83 Lon: 115.74 Height: 0.0 m
Data from the previous 72 hours. | See also: Recent months for locations in Western Australia
Date/Time
WST
Temp
°C
App
Temp
°C
Dew
Point
°C
Rel
Hum
%
Delta-T
°C
Wind Press
QNH
hPa
Press
MSL
hPa
Rain since
9am
mm
Dir  Spd
km/h
Gust
km/h
Spd
kts
Gust
kts
17/03:30pm 17.6 - - - - NW 20 37 11 20 1009.6 1009.6 -
17/03:00pm 17.8 - - - - NNW 19 32 10 17 1009.5 1009.5 -
17/02:30pm 17.4 - - - - NW 22 35 12 19 1009.4 1009.4 -
17/02:00pm 17.2 - - - - NW 19 37 10 20 1009.7 1009.7 -
17/01:30pm 16.9 - - - - WNW 19 32 10 17 1010.1 1010.1 -
17/01:00pm 17.6 - - - - WNW 20 35 11 19 1010.1 1010.1 -
17/12:30pm 17.4 - - - - WNW 20 32 11 17 1010.2 1010.2 -
17/12:00pm 17.6 - - - - WNW 19 28 10 15 1010.3 1010.3 -
17/11:30am 17.8 - - - - WNW 20 32 11 17 1010.4 1010.4 -
17/11:00am 17.7 - - - - W 20 32 11 17 1010.4 1010.4 -
17/10:30am 17.2 - - - - W 24 39 13 21 1010.5 1010.5 -
17/10:00am 17.5 - - - - W 20 33 11 18 1010.2 1010.2 -
17/09:30am 17.1 - - - - W 20 32 11 17 1010.1 1010.1 -
17/09:00am 16.9 - - - - W 20 30 11 16 1009.9 1009.9 -
17/08:30am 16.5 - - - - W 20 30 11 16 1009.8 1009.8 -
17/08:00am 15.9 - - - - W 22 33 12 18 1009.5 1009.5 -
17/07:30am 15.7 - - - - W 24 39 13 21 1009.3 1009.3 -
17/07:00am 16.2 - - - - WSW 22 30 12 16 1008.8 1008.8 -
17/06:30am 15.5 - - - - WSW 24 33 13 18 1008.4 1008.4 -
17/06:00am 16.2 - - - - W 22 33 12 18 1008.0 1008.0 -
17/05:30am 15.9 - - - - W 24 41 13 22 1007.7 1007.7 -
17/05:00am 16.3 - - - - WSW 20 28 11 15 1007.4 1007.4 -
17/04:30am 16.1 - - - - WSW 24 39 13 21 1007.1 1007.1 -
17/04:18am 15.7 - - - - WSW 28 46 15 25 1007.0 1007.0 -
17/04:00am 16.8 - - - - W 20 32 11 17 1007.0 1007.0 -
17/03:30am 16.9 - - - - WSW 22 33 12 18 1006.7 1006.7 -
17/03:00am 17.1 - - - - WSW 22 33 12 18 1006.7 1006.7 -
17/02:30am 17.1 - - - - WSW 28 39 15 21 1006.5 1006.5 -
17/02:00am 17.2 - - - - WSW 22 39 12 21 1006.3 1006.3 -
17/01:30am 15.4 - - - - WSW 32 50 17 27 1006.4 1006.4 -
17/01:24am 15.9 - - - - W 28 50 15 27 1006.5 1006.5 -
17/01:00am 17.0 - - - - W 22 33 12 18 1006.7 1006.7 -
17/12:31am 16.9 - - - - W 28 46 15 25 1007.0 1007.0 -
17/12:30am 17.1 - - - - W 28 41 15 22 1006.9 1006.9 -
17/12:00am 17.0 - - - - W 24 39 13 21 1006.9 1006.9 -
 
Date/Time
WST
Temp
°C
App
Temp
°C
Dew
Point
°C
Rel
Hum
%
Delta-T
°C
Wind Press
QNH
hPa
Press
MSL
hPa
Rain since
9am
mm
Dir  Spd
km/h
Gust
km/h
Spd
kts
Gust
kts
16/11:30pm 16.7 - - - - WNW 30 48 16 26 1006.8 1006.8 -
16/11:11pm 17.2 - - - - WNW 28 46 15 25 1006.5 1006.5 -
16/11:00pm 16.9 - - - - WNW 26 39 14 21 1006.3 1006.3 -
16/10:30pm 17.5 - - - - WNW 28 48 15 26 1005.9 1005.9 -
16/10:00pm 16.8 - - - - WNW 30 48 16 26 1005.8 1005.8 -
16/09:30pm 16.6 - - - - WNW 30 50 16 27 1005.8 1005.8 -
16/09:00pm 16.5 - - - - NW 32 61 17 33 1005.7 1005.7 -
16/08:30pm 17.5 - - - - NW 32 52 17 28 1005.2 1005.2 -
16/08:00pm 17.6 - - - - NW 35 56 19 30 1004.7 1004.7 -
16/07:30pm 17.5 - - - - NW 32 54 17 29 1004.4 1004.4 -
16/07:00pm 17.4 - - - - NW 37 59 20 32 1004.4 1004.4 -
16/06:30pm 17.5 - - - - NW 32 57 17 31 1003.9 1003.9 -
16/06:00pm 17.1 - - - - NW 32 57 17 31 1003.9 1003.9 -
16/05:30pm 17.3 - - - - NW 32 57 17 31 1003.8 1003.8 -
16/05:00pm 16.4 - - - - NW 33 61 18 33 1003.8 1003.8 -
16/04:30pm 17.6 - - - - NW 30 54 16 29 1003.3 1003.3 -
16/04:00pm 16.2 - - - - NNW 33 61 18 33 1003.3 1003.3 -
16/03:30pm 18.0 - - - - NW 30 54 16 29 1003.1 1003.1 -
16/03:00pm 17.8 - - - - NW 30 48 16 26 1003.0 1003.0 -
16/02:30pm 17.4 - - - - NW 28 50 15 27 1003.2 1003.2 -
16/02:03pm 17.8 - - - - NW 28 52 15 28 1003.1 1003.1 -
16/02:00pm 17.8 - - - - NW 28 44 15 24 1003.1 1003.1 -
16/01:30pm 17.9 - - - - NW 30 50 16 27 1003.2 1003.2 -
16/01:00pm 17.9 - - - - WNW 30 56 16 30 1003.2 1003.2 -
16/12:30pm 17.6 - - - - WNW 28 48 15 26 1003.2 1003.2 -
16/12:00pm 17.6 - - - - NW 28 46 15 25 1003.1 1003.1 -
16/11:30am 17.7 - - - - NW 32 52 17 28 1003.2 1003.2 -
16/11:00am 17.9 - - - - NW 35 63 19 34 1003.1 1003.1 -
16/10:30am 17.9 - - - - NW 33 54 18 29 1003.0 1003.0 -
16/10:00am 18.2 - - - - NW 32 50 17 27 1002.6 1002.6 -
16/09:30am 18.0 - - - - NW 28 57 15 31 1002.3 1002.3 -
16/09:00am 16.2 - - - - NW 30 54 16 29 1002.0 1002.0 -
16/08:58am 16.2 - - - - NW 28 54 15 29 1002.1 1002.1 -
16/08:30am 16.1 - - - - NW 26 48 14 26 1001.6 1001.6 -
16/08:13am 16.5 - - - - WNW 28 48 15 26 1001.4 1001.4 -
16/08:00am 16.9 - - - - WNW 22 37 12 20 1001.1 1001.1 -
16/07:30am 16.6 - - - - NW 20 39 11 21 1000.9 1000.9 -
16/07:00am 16.9 - - - - N 20 35 11 19 1000.3 1000.3 -
16/06:30am 17.7 - - - - N 19 41 10 22 1000.1 1000.1 -
16/06:00am 17.3 - - - - NNE 19 30 10 16 1000.2 1000.2 -
16/05:30am 17.0 - - - - NNE 17 28 9 15 1000.3 1000.3 -
16/05:00am 16.8 - - - - NNE 15 26 8 14 1000.7 1000.7 -
16/04:30am 16.7 - - - - NNE 13 24 7 13 1001.0 1001.0 -
16/04:00am 16.8 - - - - NNE 13 22 7 12 1001.3 1001.3 -
16/03:30am 16.8 - - - - N 13 20 7 11 1001.5 1001.5 -
16/03:00am 16.7 - - - - NNE 13 20 7 11 1002.0 1002.0 -
16/02:30am 16.8 - - - - N 11 20 6 11 1002.5 1002.5 -
16/02:00am 16.8 - - - - NNE 11 17 6 9 1002.3 1002.3 -
16/01:30am 17.0 - - - - NNE 9 15 5 8 1002.9 1002.9 -
16/01:00am 17.2 - - - - NNE 9 15 5 8 1003.3 1003.3 -
16/12:30am 17.5 - - - - NNE 9 15 5 8 1004.0 1004.0 -
16/12:00am 17.5 - - - - N 7 15 4 8 1004.1 1004.1 -
 
Date/Time
WST
Temp
°C
App
Temp
°C
Dew
Point
°C
Rel
Hum
%
Delta-T
°C
Wind Press
QNH
hPa
Press
MSL
hPa
Rain since
9am
mm
Dir  Spd
km/h
Gust
km/h
Spd
kts
Gust
kts
15/11:30pm 17.7 - - - - NNW 6 13 3 7 1004.8 1004.8 -
15/11:00pm 17.7 - - - - NW 9 15 5 8 1005.4 1005.4 -
15/10:30pm 17.8 - - - - WNW 11 19 6 10 1006.1 1006.1 -
15/10:00pm 17.6 - - - - NW 6 11 3 6 1005.4 1005.4 -
15/09:30pm 17.7 - - - - WNW 4 7 2 4 1006.2 1006.2 -
15/09:00pm 17.7 - - - - W 9 13 5 7 1006.4 1006.4 -
15/08:30pm 17.7 - - - - WSW 11 15 6 8 1006.3 1006.3 -
15/08:00pm 17.7 - - - - WSW 17 24 9 13 1006.8 1006.8 -
15/07:30pm 17.8 - - - - SW 7 15 4 8 1005.8 1005.8 -
15/07:00pm 17.8 - - - - SSW 7 17 4 9 1005.7 1005.7 -
15/06:30pm 17.8 - - - - SSW 9 15 5 8 1005.9 1005.9 -
15/06:00pm 18.0 - - - - SSW 7 15 4 8 1005.9 1005.9 -
15/05:30pm 18.6 - - - - SSW 6 15 3 8 1005.9 1005.9 -
15/05:00pm 18.6 - - - - SSW 7 17 4 9 1006.5 1006.5 -
15/04:30pm 18.5 - - - - SSW 9 19 5 10 1006.9 1006.9 -
15/04:00pm 18.6 - - - - SSW 11 19 6 10 1007.4 1007.4 -
15/03:30pm 19.0 - - - - SSW 11 19 6 10 1007.5 1007.5 -
15/03:00pm 18.7 - - - - SW 17 20 9 11 1007.7 1007.7 -
15/02:30pm 18.5 - - - - SW 15 20 8 11 1008.0 1008.0 -
15/02:00pm 18.6 - - - - SW 13 17 7 9 1008.0 1008.0 -
15/01:30pm 18.2 - - - - WSW 13 17 7 9 1008.2 1008.2 -
15/01:00pm 17.9 - - - - WSW 13 17 7 9 1008.5 1008.5 -
15/12:30pm 17.8 - - - - WSW 11 15 6 8 1008.6 1008.6 -
15/12:00pm 18.1 - - - - WSW 11 15 6 8 1009.2 1009.2 -
15/11:30am 18.1 - - - - WSW 11 15 6 8 1009.5 1009.5 -
15/11:00am 18.1 - - - - W 6 9 3 5 1009.5 1009.5 -
15/10:30am 17.9 - - - - W 7 13 4 7 1009.8 1009.8 -
15/10:00am 18.1 - - - - W 7 13 4 7 1010.0 1010.0 -
15/09:30am 17.7 - - - - W 11 17 6 9 1010.1 1010.1 -
15/09:00am 17.8 - - - - W 9 15 5 8 1010.0 1010.0 -
15/08:30am 17.7 - - - - WNW 7 11 4 6 1010.0 1010.0 -
15/08:00am 18.5 - - - - NNE 6 11 3 6 1010.0 1010.0 -
15/07:30am 17.7 - - - - NNE 6 9 3 5 1010.2 1010.2 -
15/07:00am 17.5 - - - - E 4 7 2 4 1010.2 1010.2 -
15/06:30am 17.5 - - - - NNW 2 4 1 2 1010.2 1010.2 -
15/06:00am 17.2 - - - - WSW 6 7 3 4 1010.2 1010.2 -
15/05:30am 17.2 - - - - WSW 4 9 2 5 1010.2 1010.2 -
15/05:00am 17.2 - - - - W 7 13 4 7 1010.2 1010.2 -
15/04:30am 17.2 - - - - W 7 15 4 8 1010.0 1010.0 -
15/04:00am 17.3 - - - - W 7 13 4 7 1009.8 1009.8 -
15/03:30am 17.5 - - - - NW 6 9 3 5 1010.1 1010.1 -
15/03:00am 17.5 - - - - WNW 4 6 2 3 1009.9 1009.9 -
15/02:30am 17.5 - - - - NW 6 11 3 6 1010.0 1010.0 -
15/02:00am 17.6 - - - - N 6 9 3 5 1010.1 1010.1 -
15/01:30am 17.8 - - - - CALM 0 6 0 3 1010.2 1010.2 -
15/01:00am 17.9 - - - - CALM 0 2 0 1 1010.3 1010.3 -
15/12:30am 17.9 - - - - WSW 2 2 1 1 1010.7 1010.7 -
15/12:00am 17.9 - - - - WSW 6 7 3 4 1011.1 1011.1 -
 
Date/Time
WST
Temp
°C
App
Temp
°C
Dew
Point
°C
Rel
Hum
%
Delta-T
°C
Wind Press
QNH
hPa
Press
MSL
hPa
Rain since
9am
mm
Dir  Spd
km/h
Gust
km/h
Spd
kts
Gust
kts
14/11:30pm 17.9 - - - - WSW 6 9 3 5 1011.4 1011.4 -
14/11:00pm 18.1 - - - - SW 4 6 2 3 1011.4 1011.4 -
14/10:30pm 18.0 - - - - WSW 9 11 5 6 1011.8 1011.8 -
14/10:00pm 18.0 - - - - WSW 6 11 3 6 1012.2 1012.2 -
14/09:30pm 18.2 - - - - WSW 7 13 4 7 1012.2 1012.2 -
14/09:00pm 18.4 - - - - SW 7 11 4 6 1012.0 1012.0 -
14/08:30pm 18.4 - - - - SSW 4 7 2 4 1011.9 1011.9 -
14/08:00pm 18.5 - - - - SSW 4 6 2 3 1011.8 1011.8 -
14/07:30pm 18.6 - - - - SSW 4 7 2 4 1011.9 1011.9 -
14/07:00pm 18.7 - - - - SSW 4 9 2 5 1011.6 1011.6 -
14/06:30pm 18.7 - - - - SSW 6 11 3 6 1011.4 1011.4 -
14/06:00pm 18.9 - - - - SSW 7 13 4 7 1011.3 1011.3 -
14/05:30pm 19.2 - - - - SSW 7 15 4 8 1010.8 1010.8 -
14/05:00pm 19.6 - - - - SW 11 19 6 10 1010.9 1010.9 -
14/04:30pm 19.6 - - - - SW 13 20 7 11 1010.6 1010.6 -
14/04:00pm 19.6 - - - - SW 15 20 8 11 1010.4 1010.4 -

Latest Capital City Observations: Canberra | Sydney | Melbourne | Brisbane | Adelaide | Perth | Hobart | Darwin

Other Formats:

Comma delimited format used in spreadsheet applications
http://www.bom.gov.au/fwo/IDW60901/IDW60901.95605.axf

JavaScript Object Notation format (JSON) in row-major order
http://www.bom.gov.au/fwo/IDW60901/IDW60901.95605.json